sensor_id;sensor_type;location;lat;lon;timestamp;P1;durP1;ratioP1;P2;durP2;ratioP2
54247;SDS011;40161;39.768;2.722;2023-08-17T00:01:26;2.63;;;0.90;;
54247;SDS011;40161;39.768;2.722;2023-08-17T00:03:51;2.40;;;1.10;;
54247;SDS011;40161;39.768;2.722;2023-08-17T00:06:17;5.40;;;1.10;;
54247;SDS011;40161;39.768;2.722;2023-08-17T00:08:42;3.95;;;1.23;;
54247;SDS011;40161;39.768;2.722;2023-08-17T00:11:08;4.95;;;1.23;;
54247;SDS011;40161;39.768;2.722;2023-08-17T00:13:34;4.45;;;1.13;;
54247;SDS011;40161;39.768;2.722;2023-08-17T00:16:00;2.63;;;1.05;;
54247;SDS011;40161;39.768;2.722;2023-08-17T00:18:25;1.75;;;0.95;;
54247;SDS011;40161;39.768;2.722;2023-08-17T00:20:51;4.43;;;1.13;;
54247;SDS011;40161;39.768;2.722;2023-08-17T00:23:17;3.00;;;1.10;;
54247;SDS011;40161;39.768;2.722;2023-08-17T00:25:43;3.30;;;1.10;;
54247;SDS011;40161;39.768;2.722;2023-08-17T00:28:08;3.25;;;1.10;;
54247;SDS011;40161;39.768;2.722;2023-08-17T00:30:34;4.05;;;1.20;;
54247;SDS011;40161;39.768;2.722;2023-08-17T00:33:01;4.80;;;1.15;;
54247;SDS011;40161;39.768;2.722;2023-08-17T00:35:28;2.72;;;1.10;;
54247;SDS011;40161;39.768;2.722;2023-08-17T00:37:53;8.35;;;1.38;;
54247;SDS011;40161;39.768;2.722;2023-08-17T00:40:20;4.65;;;1.02;;
54247;SDS011;40161;39.768;2.722;2023-08-17T00:42:46;4.68;;;1.10;;
54247;SDS011;40161;39.768;2.722;2023-08-17T00:45:11;2.80;;;1.00;;
54247;SDS011;40161;39.768;2.722;2023-08-17T00:47:37;3.25;;;1.02;;
54247;SDS011;40161;39.768;2.722;2023-08-17T00:50:02;3.03;;;1.13;;
54247;SDS011;40161;39.768;2.722;2023-08-17T00:52:29;3.25;;;1.05;;
54247;SDS011;40161;39.768;2.722;2023-08-17T00:54:57;4.10;;;1.10;;
54247;SDS011;40161;39.768;2.722;2023-08-17T00:57:23;1.92;;;0.80;;
54247;SDS011;40161;39.768;2.722;2023-08-17T00:59:49;2.50;;;0.80;;
54247;SDS011;40161;39.768;2.722;2023-08-17T01:02:16;3.53;;;0.80;;
54247;SDS011;40161;39.768;2.722;2023-08-17T01:04:42;1.60;;;0.80;;
54247;SDS011;40161;39.768;2.722;2023-08-17T01:07:08;3.00;;;0.95;;
54247;SDS011;40161;39.768;2.722;2023-08-17T01:09:33;3.00;;;1.20;;
54247;SDS011;40161;39.768;2.722;2023-08-17T01:14:33;2.92;;;1.00;;
54247;SDS011;40161;39.768;2.722;2023-08-17T01:17:19;3.88;;;0.98;;
54247;SDS011;40161;39.768;2.722;2023-08-17T01:19:50;2.90;;;1.00;;
54247;SDS011;40161;39.768;2.722;2023-08-17T01:22:17;3.20;;;1.10;;
54247;SDS011;40161;39.768;2.722;2023-08-17T01:24:47;2.85;;;1.00;;
54247;SDS011;40161;39.768;2.722;2023-08-17T01:27:12;2.53;;;1.02;;
54247;SDS011;40161;39.768;2.722;2023-08-17T01:29:38;4.78;;;1.20;;
54247;SDS011;40161;39.768;2.722;2023-08-17T01:32:04;2.58;;;1.20;;
54247;SDS011;40161;39.768;2.722;2023-08-17T01:34:50;5.97;;;1.30;;
54247;SDS011;40161;39.768;2.722;2023-08-17T01:37:21;2.13;;;0.90;;
54247;SDS011;40161;39.768;2.722;2023-08-17T01:39:50;2.15;;;0.90;;
54247;SDS011;40161;39.768;2.722;2023-08-17T01:42:21;3.75;;;0.90;;
54247;SDS011;40161;39.768;2.722;2023-08-17T01:44:48;2.80;;;1.10;;
54247;SDS011;40161;39.768;2.722;2023-08-17T01:47:14;3.30;;;1.05;;
54247;SDS011;40161;39.768;2.722;2023-08-17T01:49:39;4.97;;;1.27;;
54247;SDS011;40161;39.768;2.722;2023-08-17T01:52:05;3.75;;;1.33;;
54247;SDS011;40161;39.768;2.722;2023-08-17T01:54:31;3.28;;;1.02;;
54247;SDS011;40161;39.768;2.722;2023-08-17T01:56:57;2.17;;;1.05;;
54247;SDS011;40161;39.768;2.722;2023-08-17T01:59:22;2.45;;;1.08;;
54247;SDS011;40161;39.768;2.722;2023-08-17T02:01:47;3.47;;;1.27;;
54247;SDS011;40161;39.768;2.722;2023-08-17T02:04:14;3.15;;;0.95;;
54247;SDS011;40161;39.768;2.722;2023-08-17T02:06:40;5.00;;;1.30;;
54247;SDS011;40161;39.768;2.722;2023-08-17T02:09:05;3.58;;;1.20;;
54247;SDS011;40161;39.768;2.722;2023-08-17T02:11:31;4.70;;;1.60;;
54247;SDS011;40161;39.768;2.722;2023-08-17T02:13:56;3.00;;;1.35;;
54247;SDS011;40161;39.768;2.722;2023-08-17T02:16:22;4.35;;;1.42;;
54247;SDS011;40161;39.768;2.722;2023-08-17T02:18:47;2.90;;;1.08;;
54247;SDS011;40161;39.768;2.722;2023-08-17T02:21:13;3.83;;;1.48;;
54247;SDS011;40161;39.768;2.722;2023-08-17T02:23:38;3.38;;;1.25;;
54247;SDS011;40161;39.768;2.722;2023-08-17T02:26:04;3.50;;;1.10;;
54247;SDS011;40161;39.768;2.722;2023-08-17T02:28:29;2.85;;;1.30;;
54247;SDS011;40161;39.768;2.722;2023-08-17T02:30:55;4.03;;;1.40;;
54247;SDS011;40161;39.768;2.722;2023-08-17T02:33:22;3.55;;;1.38;;
54247;SDS011;40161;39.768;2.722;2023-08-17T02:35:50;4.60;;;1.40;;
54247;SDS011;40161;39.768;2.722;2023-08-17T02:38:16;2.55;;;1.05;;
54247;SDS011;40161;39.768;2.722;2023-08-17T02:40:42;4.25;;;1.48;;
54247;SDS011;40161;39.768;2.722;2023-08-17T02:43:08;3.05;;;1.30;;
54247;SDS011;40161;39.768;2.722;2023-08-17T02:45:33;3.75;;;1.33;;
54247;SDS011;40161;39.768;2.722;2023-08-17T02:47:59;2.72;;;1.40;;
54247;SDS011;40161;39.768;2.722;2023-08-17T02:50:25;4.38;;;1.40;;
54247;SDS011;40161;39.768;2.722;2023-08-17T02:52:50;3.75;;;1.50;;
54247;SDS011;40161;39.768;2.722;2023-08-17T02:55:16;3.75;;;1.65;;
54247;SDS011;40161;39.768;2.722;2023-08-17T02:57:41;3.58;;;1.38;;
54247;SDS011;40161;39.768;2.722;2023-08-17T03:00:07;4.10;;;1.50;;
54247;SDS011;40161;39.768;2.722;2023-08-17T03:02:33;4.70;;;1.60;;
54247;SDS011;40161;39.768;2.722;2023-08-17T03:04:58;6.45;;;1.83;;
54247;SDS011;40161;39.768;2.722;2023-08-17T03:07:24;3.95;;;1.50;;
54247;SDS011;40161;39.768;2.722;2023-08-17T03:09:49;4.50;;;1.60;;
54247;SDS011;40161;39.768;2.722;2023-08-17T03:12:15;4.25;;;1.73;;
54247;SDS011;40161;39.768;2.722;2023-08-17T03:14:40;4.07;;;1.40;;
54247;SDS011;40161;39.768;2.722;2023-08-17T03:17:06;3.90;;;1.35;;
54247;SDS011;40161;39.768;2.722;2023-08-17T03:19:31;4.38;;;1.63;;
54247;SDS011;40161;39.768;2.722;2023-08-17T03:21:57;5.85;;;1.63;;
54247;SDS011;40161;39.768;2.722;2023-08-17T03:24:22;5.18;;;1.55;;
54247;SDS011;40161;39.768;2.722;2023-08-17T03:26:48;4.43;;;1.67;;
54247;SDS011;40161;39.768;2.722;2023-08-17T03:29:13;3.50;;;1.50;;
54247;SDS011;40161;39.768;2.722;2023-08-17T03:31:39;3.75;;;1.70;;
54247;SDS011;40161;39.768;2.722;2023-08-17T03:34:04;4.03;;;1.60;;
54247;SDS011;40161;39.768;2.722;2023-08-17T03:36:30;5.00;;;1.75;;
54247;SDS011;40161;39.768;2.722;2023-08-17T03:38:55;4.28;;;1.50;;
54247;SDS011;40161;39.768;2.722;2023-08-17T03:41:21;5.05;;;1.75;;
54247;SDS011;40161;39.768;2.722;2023-08-17T03:43:48;5.35;;;1.80;;
54247;SDS011;40161;39.768;2.722;2023-08-17T03:46:14;5.20;;;1.63;;
54247;SDS011;40161;39.768;2.722;2023-08-17T03:48:40;4.47;;;1.55;;
54247;SDS011;40161;39.768;2.722;2023-08-17T03:51:05;3.10;;;1.30;;
54247;SDS011;40161;39.768;2.722;2023-08-17T03:53:31;3.85;;;1.60;;
54247;SDS011;40161;39.768;2.722;2023-08-17T03:55:56;4.55;;;1.50;;
54247;SDS011;40161;39.768;2.722;2023-08-17T03:58:22;5.55;;;2.00;;
54247;SDS011;40161;39.768;2.722;2023-08-17T04:00:51;3.45;;;1.67;;
54247;SDS011;40161;39.768;2.722;2023-08-17T04:03:17;4.28;;;1.48;;
54247;SDS011;40161;39.768;2.722;2023-08-17T04:05:43;5.60;;;1.40;;
54247;SDS011;40161;39.768;2.722;2023-08-17T04:08:09;4.65;;;1.70;;
54247;SDS011;40161;39.768;2.722;2023-08-17T04:10:34;3.97;;;1.75;;
54247;SDS011;40161;39.768;2.722;2023-08-17T04:13:00;5.38;;;1.65;;
54247;SDS011;40161;39.768;2.722;2023-08-17T04:15:25;5.63;;;1.52;;
54247;SDS011;40161;39.768;2.722;2023-08-17T04:17:51;4.40;;;1.60;;
54247;SDS011;40161;39.768;2.722;2023-08-17T04:20:16;4.20;;;1.50;;
54247;SDS011;40161;39.768;2.722;2023-08-17T04:22:43;5.47;;;1.90;;
54247;SDS011;40161;39.768;2.722;2023-08-17T04:25:09;4.68;;;2.03;;
54247;SDS011;40161;39.768;2.722;2023-08-17T04:27:34;4.47;;;2.00;;
54247;SDS011;40161;39.768;2.722;2023-08-17T04:30:00;3.60;;;1.95;;
54247;SDS011;40161;39.768;2.722;2023-08-17T04:32:26;5.00;;;1.90;;
54247;SDS011;40161;39.768;2.722;2023-08-17T04:34:52;4.15;;;1.70;;
54247;SDS011;40161;39.768;2.722;2023-08-17T04:37:17;3.78;;;1.60;;
54247;SDS011;40161;39.768;2.722;2023-08-17T04:39:43;4.38;;;1.83;;
54247;SDS011;40161;39.768;2.722;2023-08-17T04:42:08;5.22;;;1.70;;
54247;SDS011;40161;39.768;2.722;2023-08-17T04:44:34;3.22;;;1.60;;
54247;SDS011;40161;39.768;2.722;2023-08-17T04:47:00;3.90;;;1.55;;
54247;SDS011;40161;39.768;2.722;2023-08-17T04:49:25;7.18;;;2.38;;
54247;SDS011;40161;39.768;2.722;2023-08-17T04:51:51;5.07;;;2.00;;
54247;SDS011;40161;39.768;2.722;2023-08-17T04:54:17;4.20;;;1.70;;
54247;SDS011;40161;39.768;2.722;2023-08-17T04:56:43;5.60;;;2.30;;
54247;SDS011;40161;39.768;2.722;2023-08-17T04:59:08;4.68;;;2.03;;
54247;SDS011;40161;39.768;2.722;2023-08-17T05:01:34;3.45;;;1.80;;
54247;SDS011;40161;39.768;2.722;2023-08-17T05:04:00;6.72;;;2.40;;
54247;SDS011;40161;39.768;2.722;2023-08-17T05:06:27;6.10;;;2.20;;
54247;SDS011;40161;39.768;2.722;2023-08-17T05:08:53;4.63;;;1.98;;
54247;SDS011;40161;39.768;2.722;2023-08-17T05:11:19;5.45;;;2.03;;
54247;SDS011;40161;39.768;2.722;2023-08-17T05:13:44;7.40;;;2.20;;
54247;SDS011;40161;39.768;2.722;2023-08-17T05:16:10;4.45;;;1.98;;
54247;SDS011;40161;39.768;2.722;2023-08-17T05:18:36;59.38;;;24.17;;
54247;SDS011;40161;39.768;2.722;2023-08-17T05:21:01;27.30;;;10.88;;
54247;SDS011;40161;39.768;2.722;2023-08-17T05:23:27;9.70;;;3.83;;
54247;SDS011;40161;39.768;2.722;2023-08-17T05:25:52;8.30;;;3.17;;
54247;SDS011;40161;39.768;2.722;2023-08-17T05:28:18;7.15;;;3.28;;
54247;SDS011;40161;39.768;2.722;2023-08-17T05:30:43;5.25;;;2.20;;
54247;SDS011;40161;39.768;2.722;2023-08-17T05:33:09;6.18;;;2.20;;
54247;SDS011;40161;39.768;2.722;2023-08-17T05:35:34;6.95;;;2.80;;
54247;SDS011;40161;39.768;2.722;2023-08-17T05:38:00;6.50;;;2.30;;
54247;SDS011;40161;39.768;2.722;2023-08-17T05:40:26;8.48;;;2.72;;
54247;SDS011;40161;39.768;2.722;2023-08-17T05:42:54;11.00;;;4.45;;
54247;SDS011;40161;39.768;2.722;2023-08-17T05:45:19;9.02;;;4.28;;
54247;SDS011;40161;39.768;2.722;2023-08-17T05:47:45;7.57;;;3.05;;
54247;SDS011;40161;39.768;2.722;2023-08-17T05:50:10;8.50;;;2.83;;
54247;SDS011;40161;39.768;2.722;2023-08-17T05:52:36;6.15;;;2.30;;
54247;SDS011;40161;39.768;2.722;2023-08-17T05:55:01;6.80;;;3.00;;
54247;SDS011;40161;39.768;2.722;2023-08-17T05:57:27;8.05;;;3.25;;
54247;SDS011;40161;39.768;2.722;2023-08-17T05:59:53;10.10;;;2.92;;
54247;SDS011;40161;39.768;2.722;2023-08-17T06:02:18;8.20;;;3.45;;
54247;SDS011;40161;39.768;2.722;2023-08-17T06:04:44;8.70;;;3.42;;
54247;SDS011;40161;39.768;2.722;2023-08-17T06:07:09;7.43;;;3.05;;
54247;SDS011;40161;39.768;2.722;2023-08-17T06:09:35;10.23;;;3.25;;
54247;SDS011;40161;39.768;2.722;2023-08-17T06:12:00;8.25;;;3.03;;
54247;SDS011;40161;39.768;2.722;2023-08-17T06:14:26;4.80;;;2.55;;
54247;SDS011;40161;39.768;2.722;2023-08-17T06:16:51;7.95;;;2.72;;
54247;SDS011;40161;39.768;2.722;2023-08-17T06:19:17;7.00;;;3.10;;
54247;SDS011;40161;39.768;2.722;2023-08-17T06:21:43;7.80;;;2.78;;
54247;SDS011;40161;39.768;2.722;2023-08-17T06:24:08;6.10;;;2.28;;
54247;SDS011;40161;39.768;2.722;2023-08-17T06:26:34;5.40;;;2.38;;
54247;SDS011;40161;39.768;2.722;2023-08-17T06:28:59;8.05;;;2.35;;
54247;SDS011;40161;39.768;2.722;2023-08-17T06:31:25;8.43;;;2.40;;
54247;SDS011;40161;39.768;2.722;2023-08-17T06:33:53;8.40;;;3.33;;
54247;SDS011;40161;39.768;2.722;2023-08-17T06:36:19;9.60;;;4.03;;
54247;SDS011;40161;39.768;2.722;2023-08-17T06:38:45;13.18;;;3.05;;
54247;SDS011;40161;39.768;2.722;2023-08-17T06:41:10;5.55;;;2.70;;
54247;SDS011;40161;39.768;2.722;2023-08-17T06:43:36;5.82;;;2.67;;
54247;SDS011;40161;39.768;2.722;2023-08-17T06:46:01;9.85;;;2.83;;
54247;SDS011;40161;39.768;2.722;2023-08-17T06:48:27;5.65;;;2.80;;
54247;SDS011;40161;39.768;2.722;2023-08-17T06:50:53;6.10;;;2.40;;
54247;SDS011;40161;39.768;2.722;2023-08-17T06:53:19;8.25;;;2.58;;
54247;SDS011;40161;39.768;2.722;2023-08-17T06:55:44;5.85;;;2.58;;
54247;SDS011;40161;39.768;2.722;2023-08-17T06:58:10;4.32;;;2.72;;
54247;SDS011;40161;39.768;2.722;2023-08-17T07:00:36;5.28;;;2.42;;
54247;SDS011;40161;39.768;2.722;2023-08-17T07:03:04;6.25;;;2.78;;
54247;SDS011;40161;39.768;2.722;2023-08-17T07:05:29;8.70;;;2.85;;
54247;SDS011;40161;39.768;2.722;2023-08-17T07:07:56;6.00;;;2.75;;
54247;SDS011;40161;39.768;2.722;2023-08-17T07:10:22;5.75;;;2.55;;
54247;SDS011;40161;39.768;2.722;2023-08-17T07:12:48;6.72;;;2.80;;
54247;SDS011;40161;39.768;2.722;2023-08-17T07:15:13;9.80;;;3.10;;
54247;SDS011;40161;39.768;2.722;2023-08-17T07:17:40;8.00;;;2.85;;
54247;SDS011;40161;39.768;2.722;2023-08-17T07:20:05;9.73;;;3.42;;
54247;SDS011;40161;39.768;2.722;2023-08-17T07:22:32;9.05;;;3.45;;
54247;SDS011;40161;39.768;2.722;2023-08-17T07:24:58;8.27;;;3.33;;
54247;SDS011;40161;39.768;2.722;2023-08-17T07:27:24;9.85;;;3.20;;
54247;SDS011;40161;39.768;2.722;2023-08-17T07:29:49;7.28;;;3.60;;
54247;SDS011;40161;39.768;2.722;2023-08-17T07:32:15;6.72;;;3.47;;
54247;SDS011;40161;39.768;2.722;2023-08-17T07:34:41;9.05;;;3.95;;
54247;SDS011;40161;39.768;2.722;2023-08-17T07:37:06;10.30;;;3.67;;
54247;SDS011;40161;39.768;2.722;2023-08-17T07:39:32;8.80;;;3.63;;
54247;SDS011;40161;39.768;2.722;2023-08-17T07:41:58;7.00;;;3.47;;
54247;SDS011;40161;39.768;2.722;2023-08-17T07:44:24;7.22;;;3.60;;
54247;SDS011;40161;39.768;2.722;2023-08-17T07:46:49;6.15;;;3.28;;
54247;SDS011;40161;39.768;2.722;2023-08-17T07:49:15;8.40;;;3.88;;
54247;SDS011;40161;39.768;2.722;2023-08-17T07:51:40;8.43;;;3.80;;
54247;SDS011;40161;39.768;2.722;2023-08-17T07:54:06;8.52;;;4.15;;
54247;SDS011;40161;39.768;2.722;2023-08-17T07:56:32;9.60;;;3.60;;
54247;SDS011;40161;39.768;2.722;2023-08-17T07:58:57;7.32;;;3.63;;
54247;SDS011;40161;39.768;2.722;2023-08-17T08:01:23;7.22;;;3.35;;
54247;SDS011;40161;39.768;2.722;2023-08-17T08:03:49;6.45;;;3.05;;
54247;SDS011;40161;39.768;2.722;2023-08-17T08:06:15;7.93;;;3.33;;
54247;SDS011;40161;39.768;2.722;2023-08-17T08:08:40;7.03;;;3.80;;
54247;SDS011;40161;39.768;2.722;2023-08-17T08:11:06;7.32;;;3.45;;
54247;SDS011;40161;39.768;2.722;2023-08-17T08:13:31;8.15;;;3.60;;
54247;SDS011;40161;39.768;2.722;2023-08-17T08:16:00;8.02;;;3.78;;
54247;SDS011;40161;39.768;2.722;2023-08-17T08:18:26;8.05;;;3.60;;
54247;SDS011;40161;39.768;2.722;2023-08-17T08:20:51;9.88;;;3.88;;
54247;SDS011;40161;39.768;2.722;2023-08-17T08:23:17;9.15;;;3.92;;
54247;SDS011;40161;39.768;2.722;2023-08-17T08:25:43;9.43;;;3.92;;
54247;SDS011;40161;39.768;2.722;2023-08-17T08:28:08;13.30;;;4.22;;
54247;SDS011;40161;39.768;2.722;2023-08-17T08:30:34;10.40;;;3.80;;
54247;SDS011;40161;39.768;2.722;2023-08-17T08:33:00;10.13;;;3.67;;
54247;SDS011;40161;39.768;2.722;2023-08-17T08:35:27;9.02;;;3.90;;
54247;SDS011;40161;39.768;2.722;2023-08-17T08:37:54;12.70;;;3.90;;
54247;SDS011;40161;39.768;2.722;2023-08-17T08:40:20;11.18;;;3.90;;
54247;SDS011;40161;39.768;2.722;2023-08-17T08:42:53;7.75;;;4.07;;
54247;SDS011;40161;39.768;2.722;2023-08-17T08:45:18;9.00;;;3.80;;
54247;SDS011;40161;39.768;2.722;2023-08-17T08:47:46;14.70;;;4.15;;
54247;SDS011;40161;39.768;2.722;2023-08-17T08:50:13;10.48;;;4.65;;
54247;SDS011;40161;39.768;2.722;2023-08-17T08:52:44;10.38;;;4.45;;
54247;SDS011;40161;39.768;2.722;2023-08-17T08:55:23;9.25;;;3.45;;
54247;SDS011;40161;39.768;2.722;2023-08-17T08:57:54;9.93;;;4.07;;
54247;SDS011;40161;39.768;2.722;2023-08-17T09:00:21;12.63;;;4.30;;
54247;SDS011;40161;39.768;2.722;2023-08-17T09:02:47;10.00;;;4.40;;
54247;SDS011;40161;39.768;2.722;2023-08-17T09:05:14;10.15;;;3.95;;
54247;SDS011;40161;39.768;2.722;2023-08-17T09:07:40;10.75;;;4.22;;
54247;SDS011;40161;39.768;2.722;2023-08-17T09:10:08;9.95;;;4.50;;
54247;SDS011;40161;39.768;2.722;2023-08-17T09:12:34;7.30;;;3.40;;
54247;SDS011;40161;39.768;2.722;2023-08-17T09:15:00;11.82;;;4.55;;
54247;SDS011;40161;39.768;2.722;2023-08-17T09:17:26;8.20;;;3.90;;
54247;SDS011;40161;39.768;2.722;2023-08-17T09:19:52;12.80;;;4.50;;
54247;SDS011;40161;39.768;2.722;2023-08-17T09:22:25;10.77;;;4.13;;
54247;SDS011;40161;39.768;2.722;2023-08-17T09:25:01;9.40;;;4.00;;
54247;SDS011;40161;39.768;2.722;2023-08-17T09:27:27;9.40;;;4.40;;
54247;SDS011;40161;39.768;2.722;2023-08-17T09:29:53;11.18;;;4.68;;
54247;SDS011;40161;39.768;2.722;2023-08-17T09:32:29;6.88;;;3.47;;
54247;SDS011;40161;39.768;2.722;2023-08-17T09:34:55;11.40;;;4.55;;
54247;SDS011;40161;39.768;2.722;2023-08-17T09:37:21;10.40;;;4.40;;
54247;SDS011;40161;39.768;2.722;2023-08-17T09:39:46;11.18;;;4.38;;
54247;SDS011;40161;39.768;2.722;2023-08-17T09:42:13;15.82;;;4.30;;
54247;SDS011;40161;39.768;2.722;2023-08-17T09:44:41;9.50;;;4.28;;
54247;SDS011;40161;39.768;2.722;2023-08-17T09:47:07;8.73;;;4.25;;
54247;SDS011;40161;39.768;2.722;2023-08-17T09:49:33;10.32;;;4.20;;
54247;SDS011;40161;39.768;2.722;2023-08-17T09:52:01;10.73;;;4.47;;
54247;SDS011;40161;39.768;2.722;2023-08-17T09:54:27;8.40;;;4.18;;
54247;SDS011;40161;39.768;2.722;2023-08-17T09:56:57;10.50;;;4.25;;
54247;SDS011;40161;39.768;2.722;2023-08-17T09:59:23;14.70;;;4.20;;
54247;SDS011;40161;39.768;2.722;2023-08-17T10:01:50;10.57;;;4.93;;
54247;SDS011;40161;39.768;2.722;2023-08-17T10:04:22;9.98;;;4.10;;
54247;SDS011;40161;39.768;2.722;2023-08-17T10:06:52;10.55;;;3.95;;
54247;SDS011;40161;39.768;2.722;2023-08-17T10:09:28;9.52;;;3.85;;
54247;SDS011;40161;39.768;2.722;2023-08-17T10:12:00;9.80;;;4.13;;
54247;SDS011;40161;39.768;2.722;2023-08-17T10:14:33;12.85;;;4.40;;
54247;SDS011;40161;39.768;2.722;2023-08-17T10:17:09;8.75;;;4.10;;
54247;SDS011;40161;39.768;2.722;2023-08-17T10:19:43;10.75;;;4.72;;
54247;SDS011;40161;39.768;2.722;2023-08-17T10:22:18;11.73;;;3.92;;
54247;SDS011;40161;39.768;2.722;2023-08-17T10:24:49;11.30;;;4.72;;
54247;SDS011;40161;39.768;2.722;2023-08-17T10:27:15;12.07;;;4.43;;
54247;SDS011;40161;39.768;2.722;2023-08-17T10:29:42;11.65;;;4.88;;
54247;SDS011;40161;39.768;2.722;2023-08-17T10:32:09;10.27;;;4.70;;
54247;SDS011;40161;39.768;2.722;2023-08-17T10:34:36;14.15;;;4.60;;
54247;SDS011;40161;39.768;2.722;2023-08-17T10:37:03;12.55;;;4.72;;
54247;SDS011;40161;39.768;2.722;2023-08-17T10:39:30;9.98;;;4.38;;
54247;SDS011;40161;39.768;2.722;2023-08-17T10:41:56;11.55;;;4.38;;
54247;SDS011;40161;39.768;2.722;2023-08-17T10:47:18;10.98;;;4.40;;
54247;SDS011;40161;39.768;2.722;2023-08-17T10:49:48;12.00;;;4.22;;
54247;SDS011;40161;39.768;2.722;2023-08-17T10:52:30;12.45;;;4.13;;
54247;SDS011;40161;39.768;2.722;2023-08-17T10:55:01;12.60;;;4.18;;
54247;SDS011;40161;39.768;2.722;2023-08-17T11:00:05;10.27;;;4.75;;
54247;SDS011;40161;39.768;2.722;2023-08-17T11:02:40;9.95;;;4.20;;
54247;SDS011;40161;39.768;2.722;2023-08-17T11:05:09;9.80;;;4.18;;
54247;SDS011;40161;39.768;2.722;2023-08-17T11:07:44;10.50;;;4.50;;
54247;SDS011;40161;39.768;2.722;2023-08-17T11:12:44;12.88;;;3.92;;
54247;SDS011;40161;39.768;2.722;2023-08-17T11:15:10;10.13;;;4.40;;
54247;SDS011;40161;39.768;2.722;2023-08-17T11:17:36;13.80;;;4.07;;
54247;SDS011;40161;39.768;2.722;2023-08-17T11:20:01;11.63;;;4.22;;
54247;SDS011;40161;39.768;2.722;2023-08-17T11:22:27;10.57;;;4.28;;
54247;SDS011;40161;39.768;2.722;2023-08-17T11:24:53;9.80;;;3.95;;
54247;SDS011;40161;39.768;2.722;2023-08-17T11:27:19;9.48;;;4.15;;
54247;SDS011;40161;39.768;2.722;2023-08-17T11:29:46;8.55;;;3.53;;
54247;SDS011;40161;39.768;2.722;2023-08-17T11:32:15;13.88;;;4.50;;
54247;SDS011;40161;39.768;2.722;2023-08-17T11:34:41;7.32;;;4.13;;
54247;SDS011;40161;39.768;2.722;2023-08-17T11:37:07;11.75;;;4.38;;
54247;SDS011;40161;39.768;2.722;2023-08-17T11:39:35;12.57;;;4.55;;
54247;SDS011;40161;39.768;2.722;2023-08-17T11:42:01;8.82;;;3.88;;
54247;SDS011;40161;39.768;2.722;2023-08-17T11:44:27;9.77;;;4.07;;
54247;SDS011;40161;39.768;2.722;2023-08-17T11:46:53;9.77;;;4.10;;
54247;SDS011;40161;39.768;2.722;2023-08-17T11:49:18;10.02;;;3.95;;
54247;SDS011;40161;39.768;2.722;2023-08-17T11:51:44;8.40;;;3.95;;
54247;SDS011;40161;39.768;2.722;2023-08-17T11:54:10;9.50;;;3.88;;
54247;SDS011;40161;39.768;2.722;2023-08-17T11:56:36;9.95;;;4.18;;
54247;SDS011;40161;39.768;2.722;2023-08-17T11:59:11;12.00;;;3.80;;
54247;SDS011;40161;39.768;2.722;2023-08-17T12:01:44;11.65;;;4.32;;
54247;SDS011;40161;39.768;2.722;2023-08-17T12:04:10;11.95;;;4.18;;
54247;SDS011;40161;39.768;2.722;2023-08-17T12:06:41;10.40;;;4.05;;
54247;SDS011;40161;39.768;2.722;2023-08-17T12:09:12;8.07;;;3.90;;
54247;SDS011;40161;39.768;2.722;2023-08-17T12:11:40;11.80;;;3.90;;
54247;SDS011;40161;39.768;2.722;2023-08-17T12:14:09;12.32;;;4.38;;
54247;SDS011;40161;39.768;2.722;2023-08-17T12:16:45;10.25;;;3.83;;
54247;SDS011;40161;39.768;2.722;2023-08-17T12:19:14;9.70;;;4.32;;
54247;SDS011;40161;39.768;2.722;2023-08-17T12:21:42;6.50;;;3.58;;
54247;SDS011;40161;39.768;2.722;2023-08-17T12:24:08;12.48;;;4.30;;
54247;SDS011;40161;39.768;2.722;2023-08-17T12:26:40;11.52;;;4.07;;
54247;SDS011;40161;39.768;2.722;2023-08-17T12:29:06;8.90;;;3.60;;
54247;SDS011;40161;39.768;2.722;2023-08-17T12:31:32;8.13;;;3.80;;
54247;SDS011;40161;39.768;2.722;2023-08-17T12:33:59;7.85;;;3.63;;
54247;SDS011;40161;39.768;2.722;2023-08-17T12:36:24;8.40;;;3.50;;
54247;SDS011;40161;39.768;2.722;2023-08-17T12:38:50;9.85;;;4.07;;
54247;SDS011;40161;39.768;2.722;2023-08-17T12:41:15;11.13;;;3.88;;
54247;SDS011;40161;39.768;2.722;2023-08-17T12:43:41;12.93;;;4.18;;
54247;SDS011;40161;39.768;2.722;2023-08-17T12:46:06;12.15;;;3.88;;
54247;SDS011;40161;39.768;2.722;2023-08-17T12:48:32;10.13;;;3.60;;
54247;SDS011;40161;39.768;2.722;2023-08-17T12:50:57;8.38;;;3.85;;
54247;SDS011;40161;39.768;2.722;2023-08-17T12:53:23;8.88;;;3.90;;
54247;SDS011;40161;39.768;2.722;2023-08-17T12:55:48;12.15;;;4.20;;
54247;SDS011;40161;39.768;2.722;2023-08-17T12:58:14;9.20;;;3.80;;
54247;SDS011;40161;39.768;2.722;2023-08-17T13:00:40;8.38;;;4.05;;
54247;SDS011;40161;39.768;2.722;2023-08-17T13:03:05;9.15;;;3.60;;
54247;SDS011;40161;39.768;2.722;2023-08-17T13:05:32;7.43;;;3.50;;
54247;SDS011;40161;39.768;2.722;2023-08-17T13:07:58;9.43;;;3.75;;
54247;SDS011;40161;39.768;2.722;2023-08-17T13:10:23;11.05;;;4.00;;
54247;SDS011;40161;39.768;2.722;2023-08-17T13:12:49;8.65;;;3.90;;
54247;SDS011;40161;39.768;2.722;2023-08-17T13:15:19;10.07;;;3.60;;
54247;SDS011;40161;39.768;2.722;2023-08-17T13:17:46;10.82;;;3.45;;
54247;SDS011;40161;39.768;2.722;2023-08-17T13:20:11;9.30;;;4.00;;
54247;SDS011;40161;39.768;2.722;2023-08-17T13:22:36;12.32;;;3.67;;
54247;SDS011;40161;39.768;2.722;2023-08-17T13:25:02;10.68;;;4.03;;
54247;SDS011;40161;39.768;2.722;2023-08-17T13:27:28;9.20;;;3.70;;
54247;SDS011;40161;39.768;2.722;2023-08-17T13:29:53;10.20;;;4.07;;
54247;SDS011;40161;39.768;2.722;2023-08-17T13:32:19;10.55;;;4.05;;
54247;SDS011;40161;39.768;2.722;2023-08-17T13:34:45;11.23;;;3.88;;
54247;SDS011;40161;39.768;2.722;2023-08-17T13:37:10;10.85;;;3.90;;
54247;SDS011;40161;39.768;2.722;2023-08-17T13:39:36;11.32;;;3.90;;
54247;SDS011;40161;39.768;2.722;2023-08-17T13:42:01;10.73;;;4.00;;
54247;SDS011;40161;39.768;2.722;2023-08-17T13:44:27;13.00;;;3.80;;
54247;SDS011;40161;39.768;2.722;2023-08-17T13:46:52;13.23;;;3.75;;
54247;SDS011;40161;39.768;2.722;2023-08-17T13:49:18;11.55;;;3.85;;
54247;SDS011;40161;39.768;2.722;2023-08-17T13:51:43;8.10;;;3.85;;
54247;SDS011;40161;39.768;2.722;2023-08-17T13:54:09;12.38;;;4.28;;
54247;SDS011;40161;39.768;2.722;2023-08-17T13:56:34;10.73;;;3.80;;
54247;SDS011;40161;39.768;2.722;2023-08-17T13:59:00;11.18;;;4.05;;
54247;SDS011;40161;39.768;2.722;2023-08-17T14:01:25;11.85;;;4.38;;
54247;SDS011;40161;39.768;2.722;2023-08-17T14:03:51;9.55;;;4.03;;
54247;SDS011;40161;39.768;2.722;2023-08-17T14:06:16;9.45;;;4.03;;
54247;SDS011;40161;39.768;2.722;2023-08-17T14:08:42;11.90;;;4.00;;
54247;SDS011;40161;39.768;2.722;2023-08-17T14:11:08;10.93;;;4.50;;
54247;SDS011;40161;39.768;2.722;2023-08-17T14:13:33;11.15;;;4.00;;
54247;SDS011;40161;39.768;2.722;2023-08-17T14:16:01;11.02;;;4.10;;
54247;SDS011;40161;39.768;2.722;2023-08-17T14:18:26;8.00;;;3.55;;
54247;SDS011;40161;39.768;2.722;2023-08-17T14:20:52;9.38;;;4.68;;
54247;SDS011;40161;39.768;2.722;2023-08-17T14:23:17;10.90;;;4.25;;
54247;SDS011;40161;39.768;2.722;2023-08-17T14:25:43;12.85;;;4.32;;
54247;SDS011;40161;39.768;2.722;2023-08-17T14:28:08;9.88;;;3.75;;
54247;SDS011;40161;39.768;2.722;2023-08-17T14:30:34;9.98;;;3.75;;
54247;SDS011;40161;39.768;2.722;2023-08-17T14:32:59;12.77;;;4.18;;
54247;SDS011;40161;39.768;2.722;2023-08-17T14:35:26;12.35;;;3.88;;
54247;SDS011;40161;39.768;2.722;2023-08-17T14:37:52;12.63;;;3.88;;
54247;SDS011;40161;39.768;2.722;2023-08-17T14:40:17;12.82;;;4.20;;
54247;SDS011;40161;39.768;2.722;2023-08-17T14:42:43;13.00;;;4.18;;
54247;SDS011;40161;39.768;2.722;2023-08-17T14:45:10;10.02;;;4.05;;
54247;SDS011;40161;39.768;2.722;2023-08-17T14:47:36;11.32;;;4.28;;
54247;SDS011;40161;39.768;2.722;2023-08-17T14:50:02;10.02;;;4.10;;